Terminal Aerodrome Forecast
Issued by NWS

Home | Current Version | Previous Version | Text Only | Print | Product List | Glossary On
Versions: 1 2 3 4 5 6 7 8 9 10 11 12 13 14 15 16 17 18 19 20 21 22 23 24
000
FTUS43 KGRR 151608 AAB
TAFAZO
TAF AMD
KAZO 151608Z 1516/1612 21011KT 2SM -SN OVC020
     FM151700 25012G22KT 3SM -SN BR OVC030
     FM151900 27013G23KT 6SM -SN OVC030
     FM152300 26008KT 6SM -SN BKN030
     FM160500 21006KT 5SM -SN BR OVC025=

USA.gov is the U.S. government's official web portal to all federal, state and local government web resources and services.